sensor_id;sensor_type;location;lat;lon;timestamp;P1;durP1;ratioP1;P2;durP2;ratioP2
11777;SDS011;5946;51.770;8.548;2024-03-29T00:02:09;5.37;;;1.50;;
11777;SDS011;5946;51.770;8.548;2024-03-29T00:04:35;4.90;;;1.33;;
11777;SDS011;5946;51.770;8.548;2024-03-29T00:07:00;3.47;;;1.20;;
11777;SDS011;5946;51.770;8.548;2024-03-29T00:09:26;4.90;;;1.03;;
11777;SDS011;5946;51.770;8.548;2024-03-29T00:11:52;2.73;;;1.10;;
11777;SDS011;5946;51.770;8.548;2024-03-29T00:14:18;1.77;;;1.10;;
11777;SDS011;5946;51.770;8.548;2024-03-29T00:16:44;3.17;;;1.10;;
11777;SDS011;5946;51.770;8.548;2024-03-29T00:19:10;2.50;;;1.33;;
11777;SDS011;5946;51.770;8.548;2024-03-29T00:21:36;4.83;;;1.20;;
11777;SDS011;5946;51.770;8.548;2024-03-29T00:24:02;4.60;;;1.53;;
11777;SDS011;5946;51.770;8.548;2024-03-29T00:26:28;5.17;;;1.20;;
11777;SDS011;5946;51.770;8.548;2024-03-29T00:28:54;3.70;;;1.20;;
11777;SDS011;5946;51.770;8.548;2024-03-29T00:31:20;4.20;;;1.10;;
11777;SDS011;5946;51.770;8.548;2024-03-29T00:33:46;3.93;;;1.30;;
11777;SDS011;5946;51.770;8.548;2024-03-29T00:36:12;3.47;;;0.90;;
11777;SDS011;5946;51.770;8.548;2024-03-29T00:38:38;2.63;;;1.10;;
11777;SDS011;5946;51.770;8.548;2024-03-29T00:41:04;4.03;;;1.10;;
11777;SDS011;5946;51.770;8.548;2024-03-29T00:43:30;2.77;;;0.97;;
11777;SDS011;5946;51.770;8.548;2024-03-29T00:45:56;1.63;;;1.13;;
11777;SDS011;5946;51.770;8.548;2024-03-29T00:48:22;2.83;;;1.20;;
11777;SDS011;5946;51.770;8.548;2024-03-29T00:50:49;2.73;;;0.93;;
11777;SDS011;5946;51.770;8.548;2024-03-29T00:53:15;2.67;;;1.50;;
11777;SDS011;5946;51.770;8.548;2024-03-29T00:55:41;4.33;;;1.23;;
11777;SDS011;5946;51.770;8.548;2024-03-29T00:58:07;5.37;;;1.40;;
11777;SDS011;5946;51.770;8.548;2024-03-29T01:00:33;1.63;;;1.13;;
11777;SDS011;5946;51.770;8.548;2024-03-29T01:02:59;2.33;;;1.00;;
11777;SDS011;5946;51.770;8.548;2024-03-29T01:05:25;4.87;;;1.40;;
11777;SDS011;5946;51.770;8.548;2024-03-29T01:07:51;5.83;;;1.30;;
11777;SDS011;5946;51.770;8.548;2024-03-29T01:10:17;3.20;;;1.03;;
11777;SDS011;5946;51.770;8.548;2024-03-29T01:12:43;3.53;;;1.10;;
11777;SDS011;5946;51.770;8.548;2024-03-29T01:15:11;4.77;;;1.40;;
11777;SDS011;5946;51.770;8.548;2024-03-29T01:17:37;6.10;;;1.53;;
11777;SDS011;5946;51.770;8.548;2024-03-29T01:20:03;7.13;;;1.50;;
11777;SDS011;5946;51.770;8.548;2024-03-29T01:22:29;4.33;;;1.07;;
11777;SDS011;5946;51.770;8.548;2024-03-29T01:24:55;3.80;;;0.93;;
11777;SDS011;5946;51.770;8.548;2024-03-29T01:27:21;3.10;;;1.10;;
11777;SDS011;5946;51.770;8.548;2024-03-29T01:29:47;5.13;;;1.30;;
11777;SDS011;5946;51.770;8.548;2024-03-29T01:32:13;2.13;;;0.93;;
11777;SDS011;5946;51.770;8.548;2024-03-29T01:34:39;3.80;;;1.13;;
11777;SDS011;5946;51.770;8.548;2024-03-29T01:37:05;2.03;;;0.90;;
11777;SDS011;5946;51.770;8.548;2024-03-29T01:39:31;2.33;;;0.87;;
11777;SDS011;5946;51.770;8.548;2024-03-29T01:41:57;2.70;;;1.13;;
11777;SDS011;5946;51.770;8.548;2024-03-29T01:44:23;5.87;;;1.20;;
11777;SDS011;5946;51.770;8.548;2024-03-29T01:46:49;2.03;;;0.90;;
11777;SDS011;5946;51.770;8.548;2024-03-29T01:49:15;3.80;;;1.00;;
11777;SDS011;5946;51.770;8.548;2024-03-29T01:51:41;4.73;;;0.90;;
11777;SDS011;5946;51.770;8.548;2024-03-29T01:54:08;7.73;;;1.13;;
11777;SDS011;5946;51.770;8.548;2024-03-29T01:56:35;1.70;;;0.90;;
11777;SDS011;5946;51.770;8.548;2024-03-29T01:59:01;3.80;;;1.07;;
11777;SDS011;5946;51.770;8.548;2024-03-29T02:01:29;2.73;;;1.00;;
11777;SDS011;5946;51.770;8.548;2024-03-29T02:03:55;1.53;;;0.80;;
11777;SDS011;5946;51.770;8.548;2024-03-29T02:06:22;2.33;;;1.07;;
11777;SDS011;5946;51.770;8.548;2024-03-29T02:08:49;5.80;;;1.20;;
11777;SDS011;5946;51.770;8.548;2024-03-29T02:11:15;4.70;;;1.13;;
11777;SDS011;5946;51.770;8.548;2024-03-29T02:13:41;1.13;;;0.70;;
11777;SDS011;5946;51.770;8.548;2024-03-29T02:16:07;3.47;;;1.13;;
11777;SDS011;5946;51.770;8.548;2024-03-29T02:18:33;3.53;;;1.20;;
11777;SDS011;5946;51.770;8.548;2024-03-29T02:20:59;5.13;;;1.30;;
11777;SDS011;5946;51.770;8.548;2024-03-29T02:23:26;3.53;;;1.00;;
11777;SDS011;5946;51.770;8.548;2024-03-29T02:25:55;3.27;;;1.23;;
11777;SDS011;5946;51.770;8.548;2024-03-29T02:28:25;4.20;;;1.00;;
11777;SDS011;5946;51.770;8.548;2024-03-29T02:30:51;2.40;;;1.03;;
11777;SDS011;5946;51.770;8.548;2024-03-29T02:33:17;5.37;;;1.30;;
11777;SDS011;5946;51.770;8.548;2024-03-29T02:35:43;4.77;;;1.37;;
11777;SDS011;5946;51.770;8.548;2024-03-29T02:38:09;3.30;;;1.30;;
11777;SDS011;5946;51.770;8.548;2024-03-29T02:40:35;4.30;;;1.40;;
11777;SDS011;5946;51.770;8.548;2024-03-29T02:43:01;2.93;;;1.20;;
11777;SDS011;5946;51.770;8.548;2024-03-29T02:45:27;4.53;;;1.50;;
11777;SDS011;5946;51.770;8.548;2024-03-29T02:47:52;4.03;;;1.10;;
11777;SDS011;5946;51.770;8.548;2024-03-29T02:50:18;3.63;;;1.50;;
11777;SDS011;5946;51.770;8.548;2024-03-29T02:52:45;2.00;;;1.10;;
11777;SDS011;5946;51.770;8.548;2024-03-29T02:55:11;6.97;;;1.40;;
11777;SDS011;5946;51.770;8.548;2024-03-29T02:57:37;2.70;;;1.30;;
11777;SDS011;5946;51.770;8.548;2024-03-29T03:00:06;3.33;;;1.10;;
11777;SDS011;5946;51.770;8.548;2024-03-29T03:02:37;3.77;;;1.17;;
11777;SDS011;5946;51.770;8.548;2024-03-29T03:05:03;3.20;;;1.40;;
11777;SDS011;5946;51.770;8.548;2024-03-29T03:07:30;2.97;;;1.10;;
11777;SDS011;5946;51.770;8.548;2024-03-29T03:10:14;1.83;;;1.17;;
11777;SDS011;5946;51.770;8.548;2024-03-29T03:12:59;4.00;;;1.30;;
11777;SDS011;5946;51.770;8.548;2024-03-29T03:15:25;2.17;;;1.20;;
11777;SDS011;5946;51.770;8.548;2024-03-29T03:17:50;4.83;;;1.20;;
11777;SDS011;5946;51.770;8.548;2024-03-29T03:20:16;3.43;;;1.20;;
11777;SDS011;5946;51.770;8.548;2024-03-29T03:22:42;3.50;;;1.40;;
11777;SDS011;5946;51.770;8.548;2024-03-29T03:25:08;3.10;;;1.23;;
11777;SDS011;5946;51.770;8.548;2024-03-29T03:27:34;4.13;;;1.13;;
11777;SDS011;5946;51.770;8.548;2024-03-29T03:30:00;3.70;;;1.30;;
11777;SDS011;5946;51.770;8.548;2024-03-29T03:32:26;3.20;;;1.40;;
11777;SDS011;5946;51.770;8.548;2024-03-29T03:34:52;2.87;;;1.20;;
11777;SDS011;5946;51.770;8.548;2024-03-29T03:37:18;2.57;;;1.20;;
11777;SDS011;5946;51.770;8.548;2024-03-29T03:39:44;2.60;;;1.10;;
11777;SDS011;5946;51.770;8.548;2024-03-29T03:42:10;4.63;;;1.30;;
11777;SDS011;5946;51.770;8.548;2024-03-29T03:44:36;1.97;;;1.10;;
11777;SDS011;5946;51.770;8.548;2024-03-29T03:47:02;4.27;;;1.17;;
11777;SDS011;5946;51.770;8.548;2024-03-29T03:49:28;3.23;;;1.17;;
11777;SDS011;5946;51.770;8.548;2024-03-29T03:51:54;1.37;;;0.90;;
11777;SDS011;5946;51.770;8.548;2024-03-29T03:54:19;2.47;;;1.17;;
11777;SDS011;5946;51.770;8.548;2024-03-29T03:56:45;3.47;;;1.20;;
11777;SDS011;5946;51.770;8.548;2024-03-29T03:59:13;1.90;;;1.00;;
11777;SDS011;5946;51.770;8.548;2024-03-29T04:01:39;4.57;;;1.40;;
11777;SDS011;5946;51.770;8.548;2024-03-29T04:04:05;3.63;;;1.23;;
11777;SDS011;5946;51.770;8.548;2024-03-29T04:06:31;3.27;;;1.30;;
11777;SDS011;5946;51.770;8.548;2024-03-29T04:08:57;3.90;;;1.30;;
11777;SDS011;5946;51.770;8.548;2024-03-29T04:11:23;2.23;;;1.10;;
11777;SDS011;5946;51.770;8.548;2024-03-29T04:13:49;2.93;;;1.30;;
11777;SDS011;5946;51.770;8.548;2024-03-29T04:16:15;1.70;;;1.07;;
11777;SDS011;5946;51.770;8.548;2024-03-29T04:18:41;3.30;;;1.10;;
11777;SDS011;5946;51.770;8.548;2024-03-29T04:21:07;3.43;;;1.10;;
11777;SDS011;5946;51.770;8.548;2024-03-29T04:23:33;3.43;;;1.30;;
11777;SDS011;5946;51.770;8.548;2024-03-29T04:25:59;4.57;;;1.20;;
11777;SDS011;5946;51.770;8.548;2024-03-29T04:28:26;5.20;;;1.43;;
11777;SDS011;5946;51.770;8.548;2024-03-29T04:30:55;2.00;;;1.30;;
11777;SDS011;5946;51.770;8.548;2024-03-29T04:33:21;6.60;;;1.30;;
11777;SDS011;5946;51.770;8.548;2024-03-29T04:35:54;4.30;;;1.27;;
11777;SDS011;5946;51.770;8.548;2024-03-29T04:38:21;2.90;;;1.27;;
11777;SDS011;5946;51.770;8.548;2024-03-29T04:40:47;2.37;;;1.27;;
11777;SDS011;5946;51.770;8.548;2024-03-29T04:43:13;1.20;;;0.97;;
11777;SDS011;5946;51.770;8.548;2024-03-29T04:45:39;2.07;;;1.30;;
11777;SDS011;5946;51.770;8.548;2024-03-29T04:48:05;3.00;;;1.20;;
11777;SDS011;5946;51.770;8.548;2024-03-29T04:50:31;1.97;;;1.20;;
11777;SDS011;5946;51.770;8.548;2024-03-29T04:52:57;5.07;;;1.20;;
11777;SDS011;5946;51.770;8.548;2024-03-29T04:55:23;1.60;;;0.80;;
11777;SDS011;5946;51.770;8.548;2024-03-29T04:57:49;4.03;;;1.20;;
11777;SDS011;5946;51.770;8.548;2024-03-29T05:00:15;3.73;;;1.10;;
11777;SDS011;5946;51.770;8.548;2024-03-29T05:02:41;3.10;;;1.17;;
11777;SDS011;5946;51.770;8.548;2024-03-29T05:05:07;1.80;;;1.00;;
11777;SDS011;5946;51.770;8.548;2024-03-29T05:07:33;3.90;;;1.47;;
11777;SDS011;5946;51.770;8.548;2024-03-29T05:09:59;2.40;;;1.00;;
11777;SDS011;5946;51.770;8.548;2024-03-29T05:12:25;4.13;;;1.10;;
11777;SDS011;5946;51.770;8.548;2024-03-29T05:14:51;1.23;;;0.80;;
11777;SDS011;5946;51.770;8.548;2024-03-29T05:17:17;1.10;;;0.70;;
11777;SDS011;5946;51.770;8.548;2024-03-29T05:19:45;2.83;;;1.07;;
11777;SDS011;5946;51.770;8.548;2024-03-29T05:22:11;3.40;;;0.90;;
11777;SDS011;5946;51.770;8.548;2024-03-29T05:24:37;2.07;;;1.07;;
11777;SDS011;5946;51.770;8.548;2024-03-29T05:27:03;4.03;;;1.03;;
11777;SDS011;5946;51.770;8.548;2024-03-29T05:29:29;1.80;;;1.10;;
11777;SDS011;5946;51.770;8.548;2024-03-29T05:31:55;3.33;;;1.00;;
11777;SDS011;5946;51.770;8.548;2024-03-29T05:34:21;2.57;;;1.10;;
11777;SDS011;5946;51.770;8.548;2024-03-29T05:36:48;3.83;;;1.30;;
11777;SDS011;5946;51.770;8.548;2024-03-29T05:39:14;5.97;;;1.30;;
11777;SDS011;5946;51.770;8.548;2024-03-29T05:41:40;2.23;;;1.10;;
11777;SDS011;5946;51.770;8.548;2024-03-29T05:44:06;4.57;;;1.10;;
11777;SDS011;5946;51.770;8.548;2024-03-29T05:46:32;5.83;;;1.50;;
11777;SDS011;5946;51.770;8.548;2024-03-29T05:48:58;3.47;;;1.33;;
11777;SDS011;5946;51.770;8.548;2024-03-29T05:51:24;2.93;;;1.40;;
11777;SDS011;5946;51.770;8.548;2024-03-29T05:53:50;5.77;;;1.40;;
11777;SDS011;5946;51.770;8.548;2024-03-29T05:56:16;2.17;;;1.03;;
11777;SDS011;5946;51.770;8.548;2024-03-29T05:58:42;2.87;;;1.23;;
11777;SDS011;5946;51.770;8.548;2024-03-29T06:01:08;2.33;;;1.23;;
11777;SDS011;5946;51.770;8.548;2024-03-29T06:03:33;2.10;;;1.23;;
11777;SDS011;5946;51.770;8.548;2024-03-29T06:05:59;3.07;;;1.10;;
11777;SDS011;5946;51.770;8.548;2024-03-29T06:08:25;4.80;;;1.30;;
11777;SDS011;5946;51.770;8.548;2024-03-29T06:10:52;2.23;;;1.40;;
11777;SDS011;5946;51.770;8.548;2024-03-29T06:13:18;3.03;;;1.30;;
11777;SDS011;5946;51.770;8.548;2024-03-29T06:16:02;3.70;;;1.40;;
11777;SDS011;5946;51.770;8.548;2024-03-29T06:18:47;1.60;;;1.10;;
11777;SDS011;5946;51.770;8.548;2024-03-29T06:21:13;3.50;;;1.17;;
11777;SDS011;5946;51.770;8.548;2024-03-29T06:23:39;2.40;;;1.20;;
11777;SDS011;5946;51.770;8.548;2024-03-29T06:26:05;3.17;;;1.40;;
11777;SDS011;5946;51.770;8.548;2024-03-29T06:28:31;2.43;;;1.63;;
11777;SDS011;5946;51.770;8.548;2024-03-29T06:30:57;3.70;;;1.40;;
11777;SDS011;5946;51.770;8.548;2024-03-29T06:33:25;5.97;;;1.60;;
11777;SDS011;5946;51.770;8.548;2024-03-29T06:35:54;2.27;;;1.40;;
11777;SDS011;5946;51.770;8.548;2024-03-29T06:38:20;6.10;;;1.40;;
11777;SDS011;5946;51.770;8.548;2024-03-29T06:40:46;3.00;;;1.50;;
11777;SDS011;5946;51.770;8.548;2024-03-29T06:43:15;2.80;;;1.43;;
11777;SDS011;5946;51.770;8.548;2024-03-29T06:45:41;4.77;;;1.60;;
11777;SDS011;5946;51.770;8.548;2024-03-29T06:48:10;2.30;;;1.30;;
11777;SDS011;5946;51.770;8.548;2024-03-29T06:50:37;3.30;;;1.40;;
11777;SDS011;5946;51.770;8.548;2024-03-29T06:53:05;2.97;;;1.40;;
11777;SDS011;5946;51.770;8.548;2024-03-29T06:55:31;4.03;;;1.50;;
11777;SDS011;5946;51.770;8.548;2024-03-29T06:57:57;2.27;;;1.33;;
11777;SDS011;5946;51.770;8.548;2024-03-29T07:00:23;6.47;;;1.83;;
11777;SDS011;5946;51.770;8.548;2024-03-29T07:02:49;1.97;;;1.50;;
11777;SDS011;5946;51.770;8.548;2024-03-29T07:05:15;2.00;;;1.27;;
11777;SDS011;5946;51.770;8.548;2024-03-29T07:07:41;5.03;;;1.50;;
11777;SDS011;5946;51.770;8.548;2024-03-29T07:10:07;4.73;;;1.90;;
11777;SDS011;5946;51.770;8.548;2024-03-29T07:12:33;4.87;;;1.50;;
11777;SDS011;5946;51.770;8.548;2024-03-29T07:14:59;4.50;;;1.93;;
11777;SDS011;5946;51.770;8.548;2024-03-29T07:17:25;2.03;;;1.50;;
11777;SDS011;5946;51.770;8.548;2024-03-29T07:19:51;4.97;;;1.53;;
11777;SDS011;5946;51.770;8.548;2024-03-29T07:22:17;2.57;;;1.43;;
11777;SDS011;5946;51.770;8.548;2024-03-29T07:24:43;1.80;;;1.20;;
11777;SDS011;5946;51.770;8.548;2024-03-29T07:27:08;3.43;;;1.57;;
11777;SDS011;5946;51.770;8.548;2024-03-29T07:29:36;4.00;;;1.60;;
11777;SDS011;5946;51.770;8.548;2024-03-29T07:32:02;2.20;;;1.30;;
11777;SDS011;5946;51.770;8.548;2024-03-29T07:34:28;4.30;;;1.40;;
11777;SDS011;5946;51.770;8.548;2024-03-29T07:36:54;3.63;;;1.60;;
11777;SDS011;5946;51.770;8.548;2024-03-29T07:39:19;2.30;;;1.60;;
11777;SDS011;5946;51.770;8.548;2024-03-29T07:41:47;3.30;;;1.73;;
11777;SDS011;5946;51.770;8.548;2024-03-29T07:44:13;5.00;;;1.83;;
11777;SDS011;5946;51.770;8.548;2024-03-29T07:46:39;3.33;;;1.30;;
11777;SDS011;5946;51.770;8.548;2024-03-29T07:49:05;3.73;;;1.60;;
11777;SDS011;5946;51.770;8.548;2024-03-29T07:51:32;3.57;;;1.67;;
11777;SDS011;5946;51.770;8.548;2024-03-29T07:53:58;3.13;;;1.60;;
11777;SDS011;5946;51.770;8.548;2024-03-29T07:56:24;3.57;;;1.83;;
11777;SDS011;5946;51.770;8.548;2024-03-29T07:58:54;7.00;;;1.70;;
11777;SDS011;5946;51.770;8.548;2024-03-29T08:01:20;5.00;;;1.70;;
11777;SDS011;5946;51.770;8.548;2024-03-29T08:03:46;4.07;;;2.07;;
11777;SDS011;5946;51.770;8.548;2024-03-29T08:06:12;2.80;;;1.60;;
11777;SDS011;5946;51.770;8.548;2024-03-29T08:08:41;1.60;;;1.40;;
11777;SDS011;5946;51.770;8.548;2024-03-29T08:11:07;1.53;;;1.40;;
11777;SDS011;5946;51.770;8.548;2024-03-29T08:13:35;4.07;;;2.00;;
11777;SDS011;5946;51.770;8.548;2024-03-29T08:16:01;4.23;;;1.80;;
11777;SDS011;5946;51.770;8.548;2024-03-29T08:18:27;2.60;;;1.60;;
11777;SDS011;5946;51.770;8.548;2024-03-29T08:20:53;2.37;;;1.53;;
11777;SDS011;5946;51.770;8.548;2024-03-29T08:23:24;3.37;;;1.90;;
11777;SDS011;5946;51.770;8.548;2024-03-29T08:25:50;2.00;;;1.63;;
11777;SDS011;5946;51.770;8.548;2024-03-29T08:28:17;3.83;;;1.70;;
11777;SDS011;5946;51.770;8.548;2024-03-29T08:30:43;4.53;;;1.67;;
11777;SDS011;5946;51.770;8.548;2024-03-29T08:33:09;2.47;;;1.23;;
11777;SDS011;5946;51.770;8.548;2024-03-29T08:35:35;2.63;;;1.10;;
11777;SDS011;5946;51.770;8.548;2024-03-29T08:38:02;2.00;;;1.20;;
11777;SDS011;5946;51.770;8.548;2024-03-29T08:40:28;1.57;;;1.00;;
11777;SDS011;5946;51.770;8.548;2024-03-29T08:42:56;3.27;;;1.20;;
11777;SDS011;5946;51.770;8.548;2024-03-29T08:45:22;1.73;;;1.17;;
11777;SDS011;5946;51.770;8.548;2024-03-29T08:47:48;2.03;;;1.37;;
11777;SDS011;5946;51.770;8.548;2024-03-29T08:50:15;3.40;;;1.37;;
11777;SDS011;5946;51.770;8.548;2024-03-29T08:52:41;1.77;;;1.20;;
11777;SDS011;5946;51.770;8.548;2024-03-29T08:55:07;0.80;;;0.80;;
11777;SDS011;5946;51.770;8.548;2024-03-29T08:57:33;2.27;;;1.13;;
11777;SDS011;5946;51.770;8.548;2024-03-29T08:59:59;2.23;;;1.13;;
11777;SDS011;5946;51.770;8.548;2024-03-29T09:02:26;1.80;;;1.03;;
11777;SDS011;5946;51.770;8.548;2024-03-29T09:04:51;2.23;;;0.90;;
11777;SDS011;5946;51.770;8.548;2024-03-29T09:07:17;1.17;;;0.90;;
11777;SDS011;5946;51.770;8.548;2024-03-29T09:09:43;0.93;;;0.87;;
11777;SDS011;5946;51.770;8.548;2024-03-29T09:12:09;1.40;;;1.10;;
11777;SDS011;5946;51.770;8.548;2024-03-29T09:14:35;0.90;;;0.90;;
11777;SDS011;5946;51.770;8.548;2024-03-29T09:17:01;1.97;;;1.10;;
11777;SDS011;5946;51.770;8.548;2024-03-29T09:19:28;1.37;;;0.93;;
11777;SDS011;5946;51.770;8.548;2024-03-29T09:21:58;1.67;;;1.00;;
11777;SDS011;5946;51.770;8.548;2024-03-29T09:24:24;1.60;;;0.87;;
11777;SDS011;5946;51.770;8.548;2024-03-29T09:26:52;3.13;;;1.00;;
11777;SDS011;5946;51.770;8.548;2024-03-29T09:29:21;1.57;;;1.07;;
11777;SDS011;5946;51.770;8.548;2024-03-29T09:31:47;0.83;;;0.73;;
11777;SDS011;5946;51.770;8.548;2024-03-29T09:34:13;2.80;;;0.97;;
11777;SDS011;5946;51.770;8.548;2024-03-29T09:36:39;1.20;;;0.80;;
11777;SDS011;5946;51.770;8.548;2024-03-29T09:39:05;1.17;;;0.63;;
11777;SDS011;5946;51.770;8.548;2024-03-29T09:41:31;1.33;;;1.00;;
11777;SDS011;5946;51.770;8.548;2024-03-29T09:44:03;1.27;;;0.90;;
11777;SDS011;5946;51.770;8.548;2024-03-29T09:46:31;1.53;;;0.97;;
11777;SDS011;5946;51.770;8.548;2024-03-29T09:48:57;0.93;;;0.67;;
11777;SDS011;5946;51.770;8.548;2024-03-29T09:51:23;2.07;;;0.77;;
11777;SDS011;5946;51.770;8.548;2024-03-29T09:53:49;1.00;;;0.90;;
11777;SDS011;5946;51.770;8.548;2024-03-29T09:56:15;0.60;;;0.60;;
11777;SDS011;5946;51.770;8.548;2024-03-29T09:58:41;0.70;;;0.70;;
11777;SDS011;5946;51.770;8.548;2024-03-29T10:01:07;2.40;;;0.70;;
11777;SDS011;5946;51.770;8.548;2024-03-29T10:03:36;1.47;;;0.83;;
11777;SDS011;5946;51.770;8.548;2024-03-29T10:06:04;1.40;;;0.90;;
11777;SDS011;5946;51.770;8.548;2024-03-29T10:08:33;1.10;;;0.83;;
11777;SDS011;5946;51.770;8.548;2024-03-29T10:10:59;3.70;;;0.93;;
11777;SDS011;5946;51.770;8.548;2024-03-29T10:13:25;1.30;;;0.70;;
11777;SDS011;5946;51.770;8.548;2024-03-29T10:15:52;0.70;;;0.70;;
11777;SDS011;5946;51.770;8.548;2024-03-29T10:18:20;1.00;;;1.00;;
11777;SDS011;5946;51.770;8.548;2024-03-29T10:20:46;1.13;;;1.00;;
11777;SDS011;5946;51.770;8.548;2024-03-29T10:23:14;1.13;;;0.87;;
11777;SDS011;5946;51.770;8.548;2024-03-29T10:25:42;3.03;;;0.80;;
11777;SDS011;5946;51.770;8.548;2024-03-29T10:28:08;1.97;;;0.70;;
11777;SDS011;5946;51.770;8.548;2024-03-29T10:30:34;1.00;;;0.63;;
11777;SDS011;5946;51.770;8.548;2024-03-29T10:33:00;1.00;;;0.73;;
11777;SDS011;5946;51.770;8.548;2024-03-29T10:35:26;0.70;;;0.63;;
11777;SDS011;5946;51.770;8.548;2024-03-29T10:37:52;1.03;;;0.87;;
11777;SDS011;5946;51.770;8.548;2024-03-29T10:40:18;0.60;;;0.57;;
11777;SDS011;5946;51.770;8.548;2024-03-29T10:42:46;1.47;;;0.80;;
11777;SDS011;5946;51.770;8.548;2024-03-29T10:45:13;3.20;;;0.93;;
11777;SDS011;5946;51.770;8.548;2024-03-29T10:47:40;1.93;;;0.80;;
11777;SDS011;5946;51.770;8.548;2024-03-29T10:50:09;1.23;;;0.80;;
11777;SDS011;5946;51.770;8.548;2024-03-29T10:52:36;0.70;;;0.60;;
11777;SDS011;5946;51.770;8.548;2024-03-29T10:55:02;0.70;;;0.70;;
11777;SDS011;5946;51.770;8.548;2024-03-29T10:57:28;2.10;;;0.80;;
11777;SDS011;5946;51.770;8.548;2024-03-29T11:02:50;0.87;;;0.70;;
11777;SDS011;5946;51.770;8.548;2024-03-29T11:05:17;0.70;;;0.70;;
11777;SDS011;5946;51.770;8.548;2024-03-29T11:07:44;1.90;;;0.67;;
11777;SDS011;5946;51.770;8.548;2024-03-29T11:10:15;0.90;;;0.70;;
11777;SDS011;5946;51.770;8.548;2024-03-29T11:12:45;0.90;;;0.70;;
11777;SDS011;5946;51.770;8.548;2024-03-29T11:15:15;0.70;;;0.60;;
11777;SDS011;5946;51.770;8.548;2024-03-29T11:17:45;0.97;;;0.70;;
11777;SDS011;5946;51.770;8.548;2024-03-29T11:20:11;0.77;;;0.60;;
11777;SDS011;5946;51.770;8.548;2024-03-29T11:22:41;1.27;;;0.77;;
11777;SDS011;5946;51.770;8.548;2024-03-29T11:25:07;0.60;;;0.60;;
11777;SDS011;5946;51.770;8.548;2024-03-29T11:27:38;1.57;;;0.80;;
11777;SDS011;5946;51.770;8.548;2024-03-29T11:30:04;1.07;;;0.77;;
11777;SDS011;5946;51.770;8.548;2024-03-29T11:32:34;0.77;;;0.77;;
11777;SDS011;5946;51.770;8.548;2024-03-29T11:35:01;0.83;;;0.70;;
11777;SDS011;5946;51.770;8.548;2024-03-29T11:37:31;0.80;;;0.80;;
11777;SDS011;5946;51.770;8.548;2024-03-29T11:40:00;1.10;;;0.60;;
11777;SDS011;5946;51.770;8.548;2024-03-29T11:42:36;0.70;;;0.70;;
11777;SDS011;5946;51.770;8.548;2024-03-29T11:45:02;0.83;;;0.70;;
11777;SDS011;5946;51.770;8.548;2024-03-29T11:47:28;1.10;;;0.93;;
11777;SDS011;5946;51.770;8.548;2024-03-29T11:49:57;1.00;;;0.90;;
11777;SDS011;5946;51.770;8.548;2024-03-29T11:52:25;1.37;;;0.80;;
11777;SDS011;5946;51.770;8.548;2024-03-29T11:54:53;1.30;;;0.70;;
11777;SDS011;5946;51.770;8.548;2024-03-29T11:57:19;1.77;;;0.80;;
11777;SDS011;5946;51.770;8.548;2024-03-29T11:59:45;1.53;;;0.90;;
11777;SDS011;5946;51.770;8.548;2024-03-29T12:02:12;1.30;;;0.70;;
11777;SDS011;5946;51.770;8.548;2024-03-29T12:04:41;1.70;;;0.60;;
11777;SDS011;5946;51.770;8.548;2024-03-29T12:07:07;1.30;;;1.20;;
11777;SDS011;5946;51.770;8.548;2024-03-29T12:09:33;1.47;;;1.13;;
11777;SDS011;5946;51.770;8.548;2024-03-29T12:11:59;0.70;;;0.70;;
11777;SDS011;5946;51.770;8.548;2024-03-29T12:14:31;0.80;;;0.80;;
11777;SDS011;5946;51.770;8.548;2024-03-29T12:17:00;0.90;;;0.90;;
11777;SDS011;5946;51.770;8.548;2024-03-29T12:19:26;0.97;;;0.90;;
11777;SDS011;5946;51.770;8.548;2024-03-29T12:21:53;1.83;;;0.83;;
11777;SDS011;5946;51.770;8.548;2024-03-29T12:24:19;1.57;;;1.23;;
11777;SDS011;5946;51.770;8.548;2024-03-29T12:26:47;1.10;;;1.00;;
11777;SDS011;5946;51.770;8.548;2024-03-29T12:29:14;1.43;;;0.80;;
11777;SDS011;5946;51.770;8.548;2024-03-29T12:31:40;4.83;;;1.67;;
11777;SDS011;5946;51.770;8.548;2024-03-29T12:34:06;1.13;;;0.90;;
11777;SDS011;5946;51.770;8.548;2024-03-29T12:36:32;1.07;;;0.90;;
11777;SDS011;5946;51.770;8.548;2024-03-29T12:38:58;0.73;;;0.73;;
11777;SDS011;5946;51.770;8.548;2024-03-29T12:41:31;1.00;;;0.90;;
11777;SDS011;5946;51.770;8.548;2024-03-29T12:43:57;2.00;;;0.93;;
11777;SDS011;5946;51.770;8.548;2024-03-29T12:46:23;2.90;;;0.80;;
11777;SDS011;5946;51.770;8.548;2024-03-29T12:48:56;0.70;;;0.60;;
11777;SDS011;5946;51.770;8.548;2024-03-29T12:51:22;3.30;;;1.70;;
11777;SDS011;5946;51.770;8.548;2024-03-29T12:53:48;3.10;;;1.10;;
11777;SDS011;5946;51.770;8.548;2024-03-29T12:56:15;2.97;;;0.93;;
11777;SDS011;5946;51.770;8.548;2024-03-29T12:58:41;2.23;;;0.90;;
11777;SDS011;5946;51.770;8.548;2024-03-29T13:01:07;0.90;;;0.60;;
11777;SDS011;5946;51.770;8.548;2024-03-29T13:03:34;0.93;;;0.60;;
11777;SDS011;5946;51.770;8.548;2024-03-29T13:06:03;2.23;;;0.87;;
11777;SDS011;5946;51.770;8.548;2024-03-29T13:08:29;1.23;;;0.80;;
11777;SDS011;5946;51.770;8.548;2024-03-29T13:10:55;1.00;;;0.80;;
11777;SDS011;5946;51.770;8.548;2024-03-29T13:13:21;1.20;;;0.93;;
11777;SDS011;5946;51.770;8.548;2024-03-29T13:15:47;1.20;;;0.73;;
11777;SDS011;5946;51.770;8.548;2024-03-29T13:18:13;1.77;;;1.07;;
11777;SDS011;5946;51.770;8.548;2024-03-29T13:20:41;2.90;;;1.13;;
11777;SDS011;5946;51.770;8.548;2024-03-29T13:23:08;1.30;;;0.90;;
11777;SDS011;5946;51.770;8.548;2024-03-29T13:25:34;0.80;;;0.80;;
11777;SDS011;5946;51.770;8.548;2024-03-29T13:28:00;1.10;;;1.00;;
11777;SDS011;5946;51.770;8.548;2024-03-29T13:30:27;1.30;;;0.90;;
11777;SDS011;5946;51.770;8.548;2024-03-29T13:32:53;3.07;;;1.00;;
11777;SDS011;5946;51.770;8.548;2024-03-29T13:35:19;1.10;;;0.90;;
11777;SDS011;5946;51.770;8.548;2024-03-29T13:37:47;1.20;;;1.00;;
11777;SDS011;5946;51.770;8.548;2024-03-29T13:40:17;1.50;;;0.90;;
11777;SDS011;5946;51.770;8.548;2024-03-29T13:42:43;1.07;;;0.90;;
11777;SDS011;5946;51.770;8.548;2024-03-29T13:45:09;1.07;;;0.90;;
11777;SDS011;5946;51.770;8.548;2024-03-29T13:47:39;1.63;;;0.70;;
11777;SDS011;5946;51.770;8.548;2024-03-29T13:50:05;3.67;;;1.93;;
11777;SDS011;5946;51.770;8.548;2024-03-29T13:52:31;2.97;;;1.40;;
11777;SDS011;5946;51.770;8.548;2024-03-29T13:54:58;1.10;;;1.00;;
11777;SDS011;5946;51.770;8.548;2024-03-29T13:57:25;3.60;;;1.93;;
11777;SDS011;5946;51.770;8.548;2024-03-29T13:59:51;1.90;;;1.80;;
11777;SDS011;5946;51.770;8.548;2024-03-29T14:02:18;2.10;;;1.90;;
11777;SDS011;5946;51.770;8.548;2024-03-29T14:04:44;3.03;;;1.53;;
11777;SDS011;5946;51.770;8.548;2024-03-29T14:07:11;1.80;;;1.30;;
11777;SDS011;5946;51.770;8.548;2024-03-29T14:09:38;1.27;;;0.93;;
11777;SDS011;5946;51.770;8.548;2024-03-29T14:12:05;1.97;;;1.27;;
11777;SDS011;5946;51.770;8.548;2024-03-29T14:14:31;1.83;;;1.00;;
11777;SDS011;5946;51.770;8.548;2024-03-29T14:16:57;2.50;;;0.90;;
11777;SDS011;5946;51.770;8.548;2024-03-29T14:19:28;6.53;;;1.00;;
11777;SDS011;5946;51.770;8.548;2024-03-29T14:21:54;1.47;;;0.93;;
11777;SDS011;5946;51.770;8.548;2024-03-29T14:24:20;0.70;;;0.70;;
11777;SDS011;5946;51.770;8.548;2024-03-29T14:26:49;1.63;;;0.80;;
11777;SDS011;5946;51.770;8.548;2024-03-29T14:29:15;2.27;;;0.90;;
11777;SDS011;5946;51.770;8.548;2024-03-29T14:31:43;0.80;;;0.70;;
11777;SDS011;5946;51.770;8.548;2024-03-29T14:34:09;0.70;;;0.70;;
11777;SDS011;5946;51.770;8.548;2024-03-29T14:36:35;0.67;;;0.67;;
11777;SDS011;5946;51.770;8.548;2024-03-29T14:39:01;1.60;;;0.60;;
11777;SDS011;5946;51.770;8.548;2024-03-29T14:41:28;1.73;;;0.80;;
11777;SDS011;5946;51.770;8.548;2024-03-29T14:43:54;2.17;;;0.80;;
11777;SDS011;5946;51.770;8.548;2024-03-29T14:46:21;1.57;;;0.70;;
11777;SDS011;5946;51.770;8.548;2024-03-29T14:48:47;0.80;;;0.80;;
11777;SDS011;5946;51.770;8.548;2024-03-29T14:51:13;0.73;;;0.70;;
11777;SDS011;5946;51.770;8.548;2024-03-29T14:53:39;0.40;;;0.40;;
11777;SDS011;5946;51.770;8.548;2024-03-29T14:56:09;0.70;;;0.50;;
11777;SDS011;5946;51.770;8.548;2024-03-29T14:58:35;0.95;;;0.60;;
11777;SDS011;5946;51.770;8.548;2024-03-29T15:01:01;0.50;;;0.50;;